Time;durP1;ratioP1;P1;durP2;ratioP2;P2;SDS_P1;SDS_P2;PMS_P1;PMS_P2;Temp;Humidity;BMP_temperature;BMP_pressure;BME280_temperature;BME280_humidity;BME280_pressure;Samples;Min_cycle;Max_cycle;Signal;HPM_P1;HPM_P2
2023/06/14 00:02:04;;;;;;;;;;;;;;;;;;5091939;28;19924;-63
2023/06/14 00:04:30;;;;;;;;;;;;;;;;;;5091638;28;19971;-63
2023/06/14 00:06:57;;;;;;;;;;;;;;;;;;5091300;28;19954;-63
2023/06/14 00:09:23;;;;;;;;;;;;;;;;;;5091819;28;20065;-63
2023/06/14 00:11:49;;;;;;;;;;;;;;;;;;5073459;28;19924;-63
2023/06/14 00:14:15;;;;;;;;;;;;;;;;;;5091061;28;20289;-63
2023/06/14 00:16:42;;;;;;;;;;;;;;;;;;5091549;28;19924;-63
2023/06/14 00:19:08;;;;;;;;;;;;;;;;;;5091650;28;19924;-63
2023/06/14 00:21:34;;;;;;;;;;;;;;;;;;5091207;28;20327;-63
2023/06/14 00:24:00;;;;;;;;;;;;;;;;;;5091284;28;20398;-63
2023/06/14 00:26:26;;;;;;;;;;;;;;;;;;5061115;28;19931;-63
2023/06/14 00:28:52;;;;;;;;;;;;;;;;;;5070646;28;19928;-63
2023/06/14 00:31:18;;;;;;;;;;;;;;;;;;5090289;28;19920;-63
2023/06/14 00:33:44;;;;;;;;;;;;;;;;;;5090996;28;19963;-63
2023/06/14 00:36:10;;;;;;;;;;;;;;;;;;5090859;28;19924;-63
2023/06/14 00:38:36;;;;;;;;;;;;;;;;;;5091225;28;19927;-63
2023/06/14 00:41:03;;;;;;;;;;;;;;;;;;5090859;28;19931;-63
2023/06/14 00:43:29;;;;;;;;;;;;;;;;;;5090603;28;19970;-63
2023/06/14 00:45:55;;;;;;;;;;;;;;;;;;5072537;28;20267;-63
2023/06/14 00:48:21;;;;;;;;;;;;;;;;;;5091200;28;19954;-63
2023/06/14 00:50:48;;;;;;;;;;;;;;;;;;5090590;28;19959;-63
2023/06/14 00:53:15;;;;;;;;;;;;;;;;;;5090882;28;20432;-63
2023/06/14 00:55:41;;;;;;;;;;;;;;;;;;5091079;28;19920;-63
2023/06/14 00:58:07;;;;;;;;;;;;;;;;;;5072026;28;19920;-63
2023/06/14 01:00:33;;;;;;;;;;;;;;;;;;5090881;28;19951;-63
2023/06/14 01:02:58;;;;;;;;;;;;;;;;;;5090733;28;20018;-63
2023/06/14 01:05:24;;;;;;;;;;;;;;;;;;5090326;28;19932;-63
2023/06/14 01:07:50;;;;;;;;;;;;;;;;;;5090482;28;19924;-63
2023/06/14 01:10:16;;;;;;;;;;;;;;;;;;5090811;28;19920;-63
2023/06/14 01:12:42;;;;;;;;;;;;;;;;;;5089991;28;19970;-63
2023/06/14 01:15:09;;;;;;;;;;;;;;;;;;5090758;28;19963;-63
2023/06/14 01:17:35;;;;;;;;;;;;;;;;;;5072468;28;19931;-63
2023/06/14 01:20:01;;;;;;;;;;;;;;;;;;5090267;28;19920;-63
2023/06/14 01:22:27;;;;;;;;;;;;;;;;;;5090740;28;20278;-63
2023/06/14 01:24:55;;;;;;;;;;;;;;;;;;5090314;28;19939;-63
2023/06/14 01:27:21;;;;;;;;;;;;;;;;;;5052669;28;20002;-63
2023/06/14 01:29:47;;;;;;;;;;;;;;;;;;5076931;28;19921;-63
2023/06/14 01:32:13;;;;;;;;;;;;;;;;;;5090432;28;19928;-63
2023/06/14 01:34:39;;;;;;;;;;;;;;;;;;5089744;28;20034;-63
2023/06/14 01:37:05;;;;;;;;;;;;;;;;;;5090314;28;19945;-63
2023/06/14 01:39:31;;;;;;;;;;;;;;;;;;5090519;28;19923;-63
2023/06/14 01:41:57;;;;;;;;;;;;;;;;;;5090047;28;19962;-63
2023/06/14 01:44:23;;;;;;;;;;;;;;;;;;5071849;28;19920;-63
2023/06/14 01:46:49;;;;;;;;;;;;;;;;;;5090425;28;19924;-63
2023/06/14 01:49:15;;;;;;;;;;;;;;;;;;5089506;28;19926;-63
2023/06/14 01:51:41;;;;;;;;;;;;;;;;;;5090324;28;19963;-63
2023/06/14 01:54:07;;;;;;;;;;;;;;;;;;5092522;28;20002;-63
2023/06/14 01:56:33;;;;;;;;;;;;;;;;;;5093788;28;19934;-63
2023/06/14 01:58:59;;;;;;;;;;;;;;;;;;5094321;28;19924;-63
2023/06/14 02:01:26;;;;;;;;;;;;;;;;;;5094158;28;19963;-63
2023/06/14 02:03:53;;;;;;;;;;;;;;;;;;5093599;28;19924;-63
2023/06/14 02:06:19;;;;;;;;;;;;;;;;;;5093694;28;19989;-63
2023/06/14 02:08:45;;;;;;;;;;;;;;;;;;5094293;28;19924;-63
2023/06/14 02:11:11;;;;;;;;;;;;;;;;;;5093888;28;19943;-63
2023/06/14 02:13:37;;;;;;;;;;;;;;;;;;5093958;28;19920;-63
2023/06/14 02:16:03;;;;;;;;;;;;;;;;;;5094026;28;19924;-63
2023/06/14 02:18:29;;;;;;;;;;;;;;;;;;5093397;28;19924;-63
2023/06/14 02:20:55;;;;;;;;;;;;;;;;;;5075350;28;19967;-63
2023/06/14 02:23:21;;;;;;;;;;;;;;;;;;5093581;28;20012;-63
2023/06/14 02:25:47;;;;;;;;;;;;;;;;;;5086633;28;19977;-63
2023/06/14 02:28:13;;;;;;;;;;;;;;;;;;5073098;28;19924;-63
2023/06/14 02:30:40;;;;;;;;;;;;;;;;;;5087199;28;20381;-63
2023/06/14 02:33:06;;;;;;;;;;;;;;;;;;5092913;28;19943;-63
2023/06/14 02:35:32;;;;;;;;;;;;;;;;;;5093427;28;20365;-63
2023/06/14 02:37:58;;;;;;;;;;;;;;;;;;5093492;28;19923;-63
2023/06/14 02:40:24;;;;;;;;;;;;;;;;;;5092885;28;20366;-63
2023/06/14 02:42:50;;;;;;;;;;;;;;;;;;5093327;28;19961;-63
2023/06/14 02:45:16;;;;;;;;;;;;;;;;;;5093361;28;19928;-63
2023/06/14 02:47:42;;;;;;;;;;;;;;;;;;5075268;28;19928;-63
2023/06/14 02:50:08;;;;;;;;;;;;;;;;;;5093124;28;19967;-63
2023/06/14 02:52:34;;;;;;;;;;;;;;;;;;5093322;28;19920;-63
2023/06/14 02:55:00;;;;;;;;;;;;;;;;;;5093033;28;19923;-63
2023/06/14 02:57:26;;;;;;;;;;;;;;;;;;5074534;28;19930;-63
2023/06/14 02:59:52;;;;;;;;;;;;;;;;;;5093121;28;19924;-63
2023/06/14 03:02:18;;;;;;;;;;;;;;;;;;5093159;28;19947;-63
2023/06/14 03:04:46;;;;;;;;;;;;;;;;;;5092073;28;19924;-63
2023/06/14 03:07:13;;;;;;;;;;;;;;;;;;5093103;28;19920;-63
2023/06/14 03:09:39;;;;;;;;;;;;;;;;;;5093126;28;19924;-63
2023/06/14 03:12:06;;;;;;;;;;;;;;;;;;5074449;28;19955;-63
2023/06/14 03:14:32;;;;;;;;;;;;;;;;;;5092924;28;19963;-63
2023/06/14 03:16:58;;;;;;;;;;;;;;;;;;5092810;28;20061;-63
2023/06/14 03:19:25;;;;;;;;;;;;;;;;;;5092366;28;19943;-63
2023/06/14 03:21:51;;;;;;;;;;;;;;;;;;5092859;28;20335;-63
2023/06/14 03:24:17;;;;;;;;;;;;;;;;;;5092598;28;19920;-63
2023/06/14 03:26:43;;;;;;;;;;;;;;;;;;5077719;28;19925;-63
2023/06/14 03:29:09;;;;;;;;;;;;;;;;;;5073759;28;19921;-63
2023/06/14 03:31:35;;;;;;;;;;;;;;;;;;5092592;28;19928;-63
2023/06/14 03:34:01;;;;;;;;;;;;;;;;;;5091588;28;19955;-63
2023/06/14 03:36:27;;;;;;;;;;;;;;;;;;5074098;28;19966;-63
2023/06/14 03:38:54;;;;;;;;;;;;;;;;;;5092066;28;19927;-63
2023/06/14 03:41:20;;;;;;;;;;;;;;;;;;5073438;28;20290;-63
2023/06/14 03:43:46;;;;;;;;;;;;;;;;;;5091824;28;19920;-63
2023/06/14 03:46:12;;;;;;;;;;;;;;;;;;5092150;28;19986;-63
2023/06/14 03:48:38;;;;;;;;;;;;;;;;;;5091765;28;19969;-63
2023/06/14 03:51:04;;;;;;;;;;;;;;;;;;5092130;28;20482;-63
2023/06/14 03:53:30;;;;;;;;;;;;;;;;;;5091961;28;20024;-63
2023/06/14 03:55:57;;;;;;;;;;;;;;;;;;5091613;28;20370;-63
2023/06/14 03:58:22;;;;;;;;;;;;;;;;;;5092019;28;19975;-63
2023/06/14 04:00:49;;;;;;;;;;;;;;;;;;5091819;28;20021;-63
2023/06/14 04:03:15;;;;;;;;;;;;;;;;;;5091346;28;19924;-63
2023/06/14 04:05:42;;;;;;;;;;;;;;;;;;5091528;28;19931;-63
2023/06/14 04:08:08;;;;;;;;;;;;;;;;;;5091925;28;19928;-63
2023/06/14 04:10:34;;;;;;;;;;;;;;;;;;5091243;28;19919;-63
2023/06/14 04:13:00;;;;;;;;;;;;;;;;;;5073584;28;19924;-63
2023/06/14 04:15:29;;;;;;;;;;;;;;;;;;5091382;28;19931;-63
2023/06/14 04:17:57;;;;;;;;;;;;;;;;;;5090839;28;19920;-63
2023/06/14 04:20:24;;;;;;;;;;;;;;;;;;5091559;28;19924;-63
2023/06/14 04:22:50;;;;;;;;;;;;;;;;;;5091469;28;19924;-63
2023/06/14 04:25:16;;;;;;;;;;;;;;;;;;5088866;28;19931;-62
2023/06/14 04:27:43;;;;;;;;;;;;;;;;;;5070876;28;19924;-62
2023/06/14 04:30:09;;;;;;;;;;;;;;;;;;5062316;28;19927;-63
2023/06/14 04:32:38;;;;;;;;;;;;;;;;;;5090822;28;20282;-63
2023/06/14 04:35:05;;;;;;;;;;;;;;;;;;5090987;28;19964;-63
2023/06/14 04:37:31;;;;;;;;;;;;;;;;;;5091351;28;19928;-62
2023/06/14 04:39:57;;;;;;;;;;;;;;;;;;5090819;28;19920;-61
2023/06/14 04:42:29;;;;;;;;;;;;;;;;;;5091106;28;20412;-61
2023/06/14 04:44:55;;;;;;;;;;;;;;;;;;5090613;28;19928;-61
2023/06/14 04:47:21;;;;;;;;;;;;;;;;;;5090655;28;19927;-61
2023/06/14 04:49:47;;;;;;;;;;;;;;;;;;5091019;28;19920;-61
2023/06/14 04:52:13;;;;;;;;;;;;;;;;;;5091016;28;19969;-61
2023/06/14 04:54:41;;;;;;;;;;;;;;;;;;5090298;28;20297;-61
2023/06/14 04:57:08;;;;;;;;;;;;;;;;;;5090684;28;20011;-61
2023/06/14 04:59:35;;;;;;;;;;;;;;;;;;5090579;28;19924;-61
2023/06/14 05:02:01;;;;;;;;;;;;;;;;;;5090138;28;20557;-61
2023/06/14 05:04:27;;;;;;;;;;;;;;;;;;5090947;28;19924;-61
2023/06/14 05:06:54;;;;;;;;;;;;;;;;;;5072720;28;19984;-62
2023/06/14 05:09:20;;;;;;;;;;;;;;;;;;5088550;28;20304;-62
2023/06/14 05:11:47;;;;;;;;;;;;;;;;;;5090365;28;19973;-62
2023/06/14 05:14:13;;;;;;;;;;;;;;;;;;5090043;28;20015;-62
2023/06/14 05:16:39;;;;;;;;;;;;;;;;;;5089901;28;20042;-62
2023/06/14 05:19:05;;;;;;;;;;;;;;;;;;5090600;28;19930;-62
2023/06/14 05:21:34;;;;;;;;;;;;;;;;;;5090321;28;19920;-62
2023/06/14 05:24:00;;;;;;;;;;;;;;;;;;5089934;28;19932;-62
2023/06/14 05:26:30;;;;;;;;;;;;;;;;;;5089807;28;19924;-62
2023/06/14 05:28:56;;;;;;;;;;;;;;;;;;5094135;28;19920;-62
2023/06/14 05:31:22;;;;;;;;;;;;;;;;;;5075813;28;19943;-62
2023/06/14 05:33:49;;;;;;;;;;;;;;;;;;5094539;28;19924;-62
2023/06/14 05:36:15;;;;;;;;;;;;;;;;;;5094402;28;20065;-62
2023/06/14 05:38:41;;;;;;;;;;;;;;;;;;5094048;28;20572;-61
2023/06/14 05:41:07;;;;;;;;;;;;;;;;;;5094410;28;19927;-61
2023/06/14 05:43:32;;;;;;;;;;;;;;;;;;5094216;28;19966;-61
2023/06/14 05:45:58;;;;;;;;;;;;;;;;;;5093944;28;19928;-61
2023/06/14 05:48:24;;;;;;;;;;;;;;;;;;5094461;28;19923;-61
2023/06/14 05:50:50;;;;;;;;;;;;;;;;;;5093912;28;19963;-61
2023/06/14 05:53:16;;;;;;;;;;;;;;;;;;5093174;28;19921;-62
2023/06/14 05:55:42;;;;;;;;;;;;;;;;;;5093938;28;19924;-61
2023/06/14 05:58:08;;;;;;;;;;;;;;;;;;5094195;28;19955;-61
2023/06/14 06:00:35;;;;;;;;;;;;;;;;;;5093430;28;19920;-62
2023/06/14 06:03:00;;;;;;;;;;;;;;;;;;5093813;28;19994;-62
2023/06/14 06:05:26;;;;;;;;;;;;;;;;;;5093156;28;19924;-62
2023/06/14 06:07:52;;;;;;;;;;;;;;;;;;5093335;28;19924;-61
2023/06/14 06:10:18;;;;;;;;;;;;;;;;;;5093745;28;19920;-61
2023/06/14 06:12:45;;;;;;;;;;;;;;;;;;5093002;28;19924;-61
2023/06/14 06:15:14;;;;;;;;;;;;;;;;;;5093278;28;19924;-62
2023/06/14 06:17:40;;;;;;;;;;;;;;;;;;5093443;28;20047;-61
2023/06/14 06:20:08;;;;;;;;;;;;;;;;;;5093263;28;19920;-61
2023/06/14 06:22:34;;;;;;;;;;;;;;;;;;5092860;28;20073;-61
2023/06/14 06:25:00;;;;;;;;;;;;;;;;;;5071264;28;20358;-61
2023/06/14 06:27:26;;;;;;;;;;;;;;;;;;5053556;28;19963;-61
2023/06/14 06:29:52;;;;;;;;;;;;;;;;;;5064656;28;19970;-60
2023/06/14 06:32:18;;;;;;;;;;;;;;;;;;5072204;28;19930;-60
2023/06/14 06:34:44;;;;;;;;;;;;;;;;;;5072661;28;19925;-60
2023/06/14 06:37:10;;;;;;;;;;;;;;;;;;5072519;28;19924;-60
2023/06/14 06:39:37;;;;;;;;;;;;;;;;;;5072306;28;19928;-61
2023/06/14 06:42:03;;;;;;;;;;;;;;;;;;5067744;28;19924;-60
2023/06/14 06:44:29;;;;;;;;;;;;;;;;;;5072180;28;19920;-60
2023/06/14 06:46:55;;;;;;;;;;;;;;;;;;5070783;28;20033;-60
2023/06/14 06:49:20;;;;;;;;;;;;;;;;;;5070252;28;19924;-61
2023/06/14 06:51:46;;;;;;;;;;;;;;;;;;5071369;28;19943;-61
2023/06/14 06:54:12;;;;;;;;;;;;;;;;;;5066921;28;19927;-60
2023/06/14 06:56:41;;;;;;;;;;;;;;;;;;5065630;28;19931;-60
2023/06/14 06:59:07;;;;;;;;;;;;;;;;;;5067284;28;19920;-59
2023/06/14 07:01:33;;;;;;;;;;;;;;;;;;5071801;28;19925;-60
2023/06/14 07:03:59;;;;;;;;;;;;;;;;;;5071788;28;19942;-59
2023/06/14 07:06:27;;;;;;;;;;;;;;;;;;5071923;28;19925;-59
2023/06/14 07:08:52;;;;;;;;;;;;;;;;;;5071568;28;19982;-59
2023/06/14 07:11:18;;;;;;;;;;;;;;;;;;5072060;28;19920;-59
2023/06/14 07:13:45;;;;;;;;;;;;;;;;;;5070742;28;19997;-59
2023/06/14 07:16:11;;;;;;;;;;;;;;;;;;5071260;28;19981;-60
2023/06/14 07:18:37;;;;;;;;;;;;;;;;;;5067245;28;19920;-60
2023/06/14 07:21:03;;;;;;;;;;;;;;;;;;5071477;28;19976;-59
2023/06/14 07:23:29;;;;;;;;;;;;;;;;;;5071158;28;19935;-60
2023/06/14 07:25:55;;;;;;;;;;;;;;;;;;5075719;28;20287;-59
2023/06/14 07:28:21;;;;;;;;;;;;;;;;;;5087271;28;20006;-60
2023/06/14 07:30:48;;;;;;;;;;;;;;;;;;5091120;28;19947;-61
2023/06/14 07:33:14;;;;;;;;;;;;;;;;;;5090974;28;19931;-60
2023/06/14 07:35:40;;;;;;;;;;;;;;;;;;5086104;28;20482;-60
2023/06/14 07:38:06;;;;;;;;;;;;;;;;;;5091185;28;20030;-60
2023/06/14 07:40:32;;;;;;;;;;;;;;;;;;5086488;28;20337;-60
2023/06/14 07:42:58;;;;;;;;;;;;;;;;;;5086519;28;19928;-61
2023/06/14 07:45:24;;;;;;;;;;;;;;;;;;5090268;28;19993;-60
2023/06/14 07:47:51;;;;;;;;;;;;;;;;;;5091290;28;19924;-59
2023/06/14 07:50:17;;;;;;;;;;;;;;;;;;5082272;28;20306;-59
2023/06/14 07:52:43;;;;;;;;;;;;;;;;;;5085173;28;19950;-59
2023/06/14 07:55:09;;;;;;;;;;;;;;;;;;5091301;28;19989;-58
2023/06/14 07:57:35;;;;;;;;;;;;;;;;;;5091042;28;19926;-58
2023/06/14 08:00:01;;;;;;;;;;;;;;;;;;5085314;28;20031;-57
2023/06/14 08:02:30;;;;;;;;;;;;;;;;;;5091083;28;19927;-59
2023/06/14 08:04:56;;;;;;;;;;;;;;;;;;5081453;28;19925;-59
2023/06/14 08:07:22;;;;;;;;;;;;;;;;;;5086621;28;19924;-59
2023/06/14 08:09:48;;;;;;;;;;;;;;;;;;5090962;28;20562;-59
2023/06/14 08:12:14;;;;;;;;;;;;;;;;;;5090976;28;20006;-58
2023/06/14 08:14:40;;;;;;;;;;;;;;;;;;5090171;28;19977;-59
2023/06/14 08:17:06;;;;;;;;;;;;;;;;;;5090507;28;19974;-59
2023/06/14 08:19:32;;;;;;;;;;;;;;;;;;5090944;28;19967;-59
2023/06/14 08:21:58;;;;;;;;;;;;;;;;;;5090193;28;19963;-59
2023/06/14 08:24:24;;;;;;;;;;;;;;;;;;5090518;28;19923;-59
2023/06/14 08:26:50;;;;;;;;;;;;;;;;;;5090021;28;19932;-60
2023/06/14 08:29:16;;;;;;;;;;;;;;;;;;5090142;28;19936;-60
2023/06/14 08:31:42;;;;;;;;;;;;;;;;;;5090444;28;19924;-60
2023/06/14 08:34:08;;;;;;;;;;;;;;;;;;5090001;28;19943;-59
2023/06/14 08:36:34;;;;;;;;;;;;;;;;;;5085135;28;19924;-60
2023/06/14 08:39:00;;;;;;;;;;;;;;;;;;5090333;28;19923;-60
2023/06/14 08:41:27;;;;;;;;;;;;;;;;;;5090570;28;19931;-60
2023/06/14 08:43:53;;;;;;;;;;;;;;;;;;5089617;28;19959;-60
2023/06/14 08:46:22;;;;;;;;;;;;;;;;;;5090252;28;19928;-60
2023/06/14 08:48:48;;;;;;;;;;;;;;;;;;5090199;28;19931;-60
2023/06/14 08:51:15;;;;;;;;;;;;;;;;;;5086222;28;19942;-60
2023/06/14 08:53:41;;;;;;;;;;;;;;;;;;5089653;28;19924;-60
2023/06/14 08:56:13;;;;;;;;;;;;;;;;;;5089802;28;19972;-59
2023/06/14 08:58:43;;;;;;;;;;;;;;;;;;5089646;28;20438;-60
2023/06/14 09:01:11;;;;;;;;;;;;;;;;;;5089915;28;19931;-59
2023/06/14 09:03:40;;;;;;;;;;;;;;;;;;5089399;28;19920;-59
2023/06/14 09:06:08;;;;;;;;;;;;;;;;;;5085233;28;19924;-59
2023/06/14 09:08:35;;;;;;;;;;;;;;;;;;5090212;28;19920;-59
2023/06/14 09:11:00;;;;;;;;;;;;;;;;;;5090149;28;19920;-59
2023/06/14 09:13:26;;;;;;;;;;;;;;;;;;5084412;28;19920;-59
2023/06/14 09:15:52;;;;;;;;;;;;;;;;;;5089821;28;19928;-58
2023/06/14 09:18:20;;;;;;;;;;;;;;;;;;5072069;28;19921;-58
2023/06/14 09:20:47;;;;;;;;;;;;;;;;;;5073137;28;20081;-58
2023/06/14 09:23:13;;;;;;;;;;;;;;;;;;5089189;28;19928;-58
2023/06/14 09:25:39;;;;;;;;;;;;;;;;;;5089336;28;19933;-60
2023/06/14 09:28:05;;;;;;;;;;;;;;;;;;5083628;28;19924;-59
2023/06/14 09:30:31;;;;;;;;;;;;;;;;;;5089902;28;20447;-59
2023/06/14 09:32:57;;;;;;;;;;;;;;;;;;5070929;28;19920;-59
2023/06/14 09:35:23;;;;;;;;;;;;;;;;;;5088890;28;20033;-59
2023/06/14 09:37:49;;;;;;;;;;;;;;;;;;5088744;28;20008;-59
2023/06/14 09:40:15;;;;;;;;;;;;;;;;;;5084613;28;19969;-59
2023/06/14 09:42:41;;;;;;;;;;;;;;;;;;5088645;28;19928;-59
2023/06/14 09:45:07;;;;;;;;;;;;;;;;;;5084396;28;19982;-59
2023/06/14 09:47:33;;;;;;;;;;;;;;;;;;5071283;28;19924;-57
2023/06/14 09:50:00;;;;;;;;;;;;;;;;;;5063929;28;19975;-59
2023/06/14 09:52:26;;;;;;;;;;;;;;;;;;5075650;28;20006;-57
2023/06/14 09:54:53;;;;;;;;;;;;;;;;;;5089158;28;19924;-59
2023/06/14 09:57:19;;;;;;;;;;;;;;;;;;5088424;28;19930;-59
2023/06/14 09:59:45;;;;;;;;;;;;;;;;;;5070732;28;20632;-57
2023/06/14 10:02:12;;;;;;;;;;;;;;;;;;5084128;28;19920;-59
2023/06/14 10:04:38;;;;;;;;;;;;;;;;;;5087979;28;20023;-58
2023/06/14 10:07:05;;;;;;;;;;;;;;;;;;5071089;28;20455;-58
2023/06/14 10:09:31;;;;;;;;;;;;;;;;;;5088920;28;19924;-59
2023/06/14 10:11:56;;;;;;;;;;;;;;;;;;5088712;28;19927;-59
2023/06/14 10:14:22;;;;;;;;;;;;;;;;;;5089875;28;19924;-59
2023/06/14 10:16:48;;;;;;;;;;;;;;;;;;5092610;28;19927;-59
2023/06/14 10:19:14;;;;;;;;;;;;;;;;;;5085666;28;19924;-60
2023/06/14 10:21:42;;;;;;;;;;;;;;;;;;5093006;28;19924;-60
2023/06/14 10:24:08;;;;;;;;;;;;;;;;;;5093141;28;20337;-60
2023/06/14 10:26:34;;;;;;;;;;;;;;;;;;5092359;28;19928;-59
2023/06/14 10:29:01;;;;;;;;;;;;;;;;;;5092505;28;20019;-59
2023/06/14 10:31:26;;;;;;;;;;;;;;;;;;5073229;28;19924;-60
2023/06/14 10:33:53;;;;;;;;;;;;;;;;;;5089722;28;19923;-60
2023/06/14 10:36:19;;;;;;;;;;;;;;;;;;5092543;28;19920;-60
2023/06/14 10:38:45;;;;;;;;;;;;;;;;;;5093019;28;19920;-60
2023/06/14 10:41:11;;;;;;;;;;;;;;;;;;5091978;28;19931;-61
2023/06/14 10:43:36;;;;;;;;;;;;;;;;;;5092545;28;19930;-61
2023/06/14 10:46:02;;;;;;;;;;;;;;;;;;5092420;28;19951;-60
2023/06/14 10:48:28;;;;;;;;;;;;;;;;;;5092765;28;20027;-60
2023/06/14 10:50:54;;;;;;;;;;;;;;;;;;5059630;28;19928;-61
2023/06/14 10:53:20;;;;;;;;;;;;;;;;;;5084165;28;19989;-60
2023/06/14 10:55:46;;;;;;;;;;;;;;;;;;5092730;28;19920;-59
2023/06/14 10:58:12;;;;;;;;;;;;;;;;;;5091914;28;20338;-59
2023/06/14 11:00:39;;;;;;;;;;;;;;;;;;5092103;28;19966;-59
2023/06/14 11:03:05;;;;;;;;;;;;;;;;;;5092249;28;20031;-59
2023/06/14 11:05:30;;;;;;;;;;;;;;;;;;5091758;28;20441;-59
2023/06/14 11:07:58;;;;;;;;;;;;;;;;;;5092538;28;19923;-60
2023/06/14 11:10:24;;;;;;;;;;;;;;;;;;5092486;28;19966;-60
2023/06/14 11:12:50;;;;;;;;;;;;;;;;;;5091501;28;19924;-61
2023/06/14 11:15:16;;;;;;;;;;;;;;;;;;5092396;28;19969;-60
2023/06/14 11:17:42;;;;;;;;;;;;;;;;;;5091920;28;19999;-60
2023/06/14 11:20:07;;;;;;;;;;;;;;;;;;5091951;28;19943;-60
2023/06/14 11:22:33;;;;;;;;;;;;;;;;;;5092231;28;19928;-61
2023/06/14 11:25:02;;;;;;;;;;;;;;;;;;5091150;28;19989;-60
2023/06/14 11:27:28;;;;;;;;;;;;;;;;;;5071503;28;20275;-60
2023/06/14 11:29:54;;;;;;;;;;;;;;;;;;5087419;28;19934;-60
2023/06/14 11:32:20;;;;;;;;;;;;;;;;;;5092172;28;19943;-60
2023/06/14 11:34:46;;;;;;;;;;;;;;;;;;5091121;28;19974;-60
2023/06/14 11:37:12;;;;;;;;;;;;;;;;;;5091342;28;20436;-58
2023/06/14 11:39:38;;;;;;;;;;;;;;;;;;5091804;28;20282;-60
2023/06/14 11:42:05;;;;;;;;;;;;;;;;;;5091080;28;19928;-59
2023/06/14 11:44:31;;;;;;;;;;;;;;;;;;5091366;28;20002;-59
2023/06/14 11:46:57;;;;;;;;;;;;;;;;;;5091466;28;19994;-60
2023/06/14 11:49:23;;;;;;;;;;;;;;;;;;5089242;28;20509;-59
2023/06/14 11:51:49;;;;;;;;;;;;;;;;;;5071558;28;19931;-60
2023/06/14 11:54:15;;;;;;;;;;;;;;;;;;5070924;28;19939;-60
2023/06/14 11:56:42;;;;;;;;;;;;;;;;;;5090696;28;19923;-60
2023/06/14 11:59:08;;;;;;;;;;;;;;;;;;5091272;28;19981;-60
2023/06/14 12:01:35;;;;;;;;;;;;;;;;;;5091443;28;19927;-60
2023/06/14 12:04:01;;;;;;;;;;;;;;;;;;5091060;28;19930;-60
2023/06/14 12:06:32;;;;;;;;;;;;;;;;;;5091265;28;20363;-60
2023/06/14 12:08:58;;;;;;;;;;;;;;;;;;5091451;28;19932;-61
2023/06/14 12:11:24;;;;;;;;;;;;;;;;;;5091139;28;19920;-61
2023/06/14 12:13:50;;;;;;;;;;;;;;;;;;5090826;28;19923;-61
2023/06/14 12:16:16;;;;;;;;;;;;;;;;;;5091242;28;20378;-60
2023/06/14 12:18:43;;;;;;;;;;;;;;;;;;5090753;28;19919;-60
2023/06/14 12:21:09;;;;;;;;;;;;;;;;;;5091055;28;19931;-61
2023/06/14 12:23:35;;;;;;;;;;;;;;;;;;5072456;28;19920;-61
2023/06/14 12:26:02;;;;;;;;;;;;;;;;;;5081933;28;19925;-60
2023/06/14 12:28:28;;;;;;;;;;;;;;;;;;5089193;28;19921;-60
2023/06/14 12:30:55;;;;;;;;;;;;;;;;;;5069917;28;19924;-61
2023/06/14 12:33:21;;;;;;;;;;;;;;;;;;5089866;28;19920;-61
2023/06/14 12:35:47;;;;;;;;;;;;;;;;;;5090321;28;19920;-61
2023/06/14 12:38:15;;;;;;;;;;;;;;;;;;5089867;28;19928;-61
2023/06/14 12:40:41;;;;;;;;;;;;;;;;;;5090040;28;19920;-61
2023/06/14 12:43:07;;;;;;;;;;;;;;;;;;5072161;28;19924;-61
2023/06/14 12:45:33;;;;;;;;;;;;;;;;;;5090549;28;19998;-60
2023/06/14 12:47:59;;;;;;;;;;;;;;;;;;5090349;28;19957;-61
2023/06/14 12:50:26;;;;;;;;;;;;;;;;;;5089894;28;19920;-60
2023/06/14 12:52:52;;;;;;;;;;;;;;;;;;5071724;28;19928;-61
2023/06/14 12:55:19;;;;;;;;;;;;;;;;;;5089593;28;20004;-61
2023/06/14 12:57:45;;;;;;;;;;;;;;;;;;5089977;28;19927;-61
2023/06/14 13:00:12;;;;;;;;;;;;;;;;;;5090675;28;20006;-61
2023/06/14 13:02:38;;;;;;;;;;;;;;;;;;5089803;28;19924;-61
2023/06/14 13:05:05;;;;;;;;;;;;;;;;;;5090023;28;19938;-61
2023/06/14 13:07:31;;;;;;;;;;;;;;;;;;5090449;28;19924;-61
2023/06/14 13:09:57;;;;;;;;;;;;;;;;;;5089586;28;19924;-61
2023/06/14 13:12:23;;;;;;;;;;;;;;;;;;5090405;28;19920;-61
2023/06/14 13:14:49;;;;;;;;;;;;;;;;;;5089668;28;19924;-61
2023/06/14 13:17:15;;;;;;;;;;;;;;;;;;5089136;28;20015;-61
2023/06/14 13:19:42;;;;;;;;;;;;;;;;;;5090305;28;20034;-61
2023/06/14 13:22:08;;;;;;;;;;;;;;;;;;5083103;28;19976;-61
2023/06/14 13:24:34;;;;;;;;;;;;;;;;;;5089270;28;19924;-61
2023/06/14 13:27:00;;;;;;;;;;;;;;;;;;5064637;28;19928;-63
2023/06/14 13:29:27;;;;;;;;;;;;;;;;;;5080920;28;19920;-62
2023/06/14 13:31:53;;;;;;;;;;;;;;;;;;5089534;28;19924;-62
2023/06/14 13:34:19;;;;;;;;;;;;;;;;;;5089828;28;19931;-60
2023/06/14 13:36:45;;;;;;;;;;;;;;;;;;5089438;28;20031;-60
2023/06/14 13:39:11;;;;;;;;;;;;;;;;;;5089323;28;20026;-60
2023/06/14 13:41:37;;;;;;;;;;;;;;;;;;5089856;28;20289;-61
2023/06/14 13:44:06;;;;;;;;;;;;;;;;;;5071864;28;20010;-60
2023/06/14 13:46:32;;;;;;;;;;;;;;;;;;5089430;28;19924;-60
2023/06/14 13:49:00;;;;;;;;;;;;;;;;;;5089341;28;19931;-60
2023/06/14 13:51:27;;;;;;;;;;;;;;;;;;5075168;28;19920;-61
2023/06/14 13:53:52;;;;;;;;;;;;;;;;;;5083688;28;19927;-61
2023/06/14 13:56:18;;;;;;;;;;;;;;;;;;5093858;28;19927;-61
2023/06/14 13:58:45;;;;;;;;;;;;;;;;;;5093536;28;19989;-59
2023/06/14 14:01:11;;;;;;;;;;;;;;;;;;5093561;28;19924;-62
2023/06/14 14:03:37;;;;;;;;;;;;;;;;;;5093515;28;19920;-61
2023/06/14 14:06:03;;;;;;;;;;;;;;;;;;5093649;28;20026;-60
2023/06/14 14:08:29;;;;;;;;;;;;;;;;;;5093666;28;19920;-61
2023/06/14 14:10:55;;;;;;;;;;;;;;;;;;5074644;28;19927;-61
2023/06/14 14:13:21;;;;;;;;;;;;;;;;;;5092927;28;19924;-61
2023/06/14 14:15:49;;;;;;;;;;;;;;;;;;5093684;28;19920;-62
2023/06/14 14:18:15;;;;;;;;;;;;;;;;;;5074513;28;19924;-61
2023/06/14 14:20:41;;;;;;;;;;;;;;;;;;5093604;28;20336;-61
2023/06/14 14:23:07;;;;;;;;;;;;;;;;;;5093385;28;19920;-60
2023/06/14 14:25:33;;;;;;;;;;;;;;;;;;5076188;28;19928;-61
2023/06/14 14:27:59;;;;;;;;;;;;;;;;;;5073080;28;19924;-61
2023/06/14 14:30:25;;;;;;;;;;;;;;;;;;5085100;28;19959;-61
2023/06/14 14:32:52;;;;;;;;;;;;;;;;;;5093072;28;20382;-62
2023/06/14 14:35:18;;;;;;;;;;;;;;;;;;5093426;28;19920;-61
2023/06/14 14:37:44;;;;;;;;;;;;;;;;;;5092737;28;20318;-61
2023/06/14 14:40:10;;;;;;;;;;;;;;;;;;5093077;28;19924;-61
2023/06/14 14:42:37;;;;;;;;;;;;;;;;;;5093527;28;20343;-61
2023/06/14 14:45:03;;;;;;;;;;;;;;;;;;5092943;28;19927;-61
2023/06/14 14:47:29;;;;;;;;;;;;;;;;;;5092456;28;19978;-62
2023/06/14 14:49:55;;;;;;;;;;;;;;;;;;5093024;28;19960;-64
2023/06/14 14:52:20;;;;;;;;;;;;;;;;;;5093187;28;19924;-64
2023/06/14 14:54:46;;;;;;;;;;;;;;;;;;5092329;28;19920;-64
2023/06/14 14:57:12;;;;;;;;;;;;;;;;;;5093299;28;19920;-64
2023/06/14 14:59:38;;;;;;;;;;;;;;;;;;5092785;28;19989;-64
2023/06/14 15:02:04;;;;;;;;;;;;;;;;;;5092552;28;19931;-64
2023/06/14 15:04:30;;;;;;;;;;;;;;;;;;5093040;28;19931;-64
2023/06/14 15:06:56;;;;;;;;;;;;;;;;;;5093097;28;19924;-64
2023/06/14 15:09:22;;;;;;;;;;;;;;;;;;5092701;28;19924;-64
2023/06/14 15:11:48;;;;;;;;;;;;;;;;;;5075050;28;20010;-65
2023/06/14 15:14:14;;;;;;;;;;;;;;;;;;5092915;28;19947;-65
2023/06/14 15:16:40;;;;;;;;;;;;;;;;;;5092222;28;20642;-65
2023/06/14 15:19:06;;;;;;;;;;;;;;;;;;5093003;28;19920;-65
2023/06/14 15:21:32;;;;;;;;;;;;;;;;;;5092932;28;19973;-65
2023/06/14 15:23:58;;;;;;;;;;;;;;;;;;5092145;28;19924;-65
2023/06/14 15:26:24;;;;;;;;;;;;;;;;;;5081363;28;19929;-65
2023/06/14 15:28:50;;;;;;;;;;;;;;;;;;5072466;28;19960;-65
2023/06/14 15:31:16;;;;;;;;;;;;;;;;;;5090579;28;19965;-65
2023/06/14 15:33:42;;;;;;;;;;;;;;;;;;5092518;28;19920;-65
2023/06/14 15:36:09;;;;;;;;;;;;;;;;;;5092479;28;19994;-65
2023/06/14 15:38:35;;;;;;;;;;;;;;;;;;5092093;28;19924;-65
2023/06/14 15:41:01;;;;;;;;;;;;;;;;;;5092552;28;20061;-65
2023/06/14 15:43:27;;;;;;;;;;;;;;;;;;5092377;28;20656;-65
2023/06/14 15:45:53;;;;;;;;;;;;;;;;;;5091551;28;19924;-65
2023/06/14 15:48:19;;;;;;;;;;;;;;;;;;5092303;28;20018;-65
2023/06/14 15:50:46;;;;;;;;;;;;;;;;;;5091975;28;20378;-65
2023/06/14 15:53:12;;;;;;;;;;;;;;;;;;5091371;28;20291;-65
2023/06/14 15:55:37;;;;;;;;;;;;;;;;;;5092121;28;19920;-65
2023/06/14 15:58:03;;;;;;;;;;;;;;;;;;5092217;28;19986;-65
2023/06/14 16:00:29;;;;;;;;;;;;;;;;;;5091474;28;19920;-65
2023/06/14 16:02:55;;;;;;;;;;;;;;;;;;5091959;28;19945;-65
2023/06/14 16:05:21;;;;;;;;;;;;;;;;;;5091902;28;19988;-64
2023/06/14 16:07:47;;;;;;;;;;;;;;;;;;5091151;28;19924;-64
2023/06/14 16:10:13;;;;;;;;;;;;;;;;;;5091712;28;20427;-64
2023/06/14 16:12:39;;;;;;;;;;;;;;;;;;5091021;28;19920;-64
2023/06/14 16:15:05;;;;;;;;;;;;;;;;;;5073225;28;19924;-64
2023/06/14 16:17:31;;;;;;;;;;;;;;;;;;5091665;28;19920;-64
2023/06/14 16:19:57;;;;;;;;;;;;;;;;;;5091645;28;20053;-64
2023/06/14 16:22:23;;;;;;;;;;;;;;;;;;5091015;28;20248;-64
2023/06/14 16:24:49;;;;;;;;;;;;;;;;;;5091307;28;19924;-65
2023/06/14 16:27:15;;;;;;;;;;;;;;;;;;5073137;28;19931;-65
2023/06/14 16:29:41;;;;;;;;;;;;;;;;;;5075930;28;20014;-65
2023/06/14 16:32:07;;;;;;;;;;;;;;;;;;5091615;28;19928;-65
2023/06/14 16:34:35;;;;;;;;;;;;;;;;;;5091109;28;20166;-65
2023/06/14 16:37:01;;;;;;;;;;;;;;;;;;5090544;28;19920;-65
2023/06/14 16:39:27;;;;;;;;;;;;;;;;;;5091308;28;20018;-64